createdAt,value
2022-11-15T00:03:14.610Z,9
2022-11-15T00:13:15.020Z,9.2
2022-11-15T00:23:15.941Z,9.1
2022-11-15T00:33:16.640Z,9
2022-11-15T00:43:16.869Z,8.9
2022-11-15T01:13:18.357Z,9.1
2022-11-15T01:23:19.038Z,9.1
2022-11-15T01:33:20.110Z,10.6
2022-11-15T01:43:20.800Z,11.6
2022-11-15T01:53:21.370Z,11.8
2022-11-15T02:03:29.212Z,12
2022-11-15T02:13:22.984Z,12.1
2022-11-15T02:23:23.336Z,12.1
2022-11-15T02:33:24.158Z,12.2
2022-11-15T02:43:24.402Z,12.2
2022-11-15T02:53:25.246Z,12.3
2022-11-15T03:03:26.054Z,12.4
2022-11-15T03:13:26.883Z,12.5
2022-11-15T09:30:52.059Z,23
2022-11-15T09:40:52.486Z,13.5
2022-11-15T09:50:53.135Z,13.4
2022-11-15T10:00:53.778Z,13.6
2022-11-15T10:11:05.151Z,13.6
2022-11-15T10:20:54.019Z,13.9
2022-11-15T10:40:55.614Z,14.3
2022-11-15T10:50:55.908Z,14.3
2022-11-15T11:00:56.920Z,14
2022-11-15T11:11:01.807Z,14.7
2022-11-15T11:20:57.976Z,14.8
2022-11-15T11:40:59.052Z,15.2
2022-11-15T11:50:59.791Z,15.2
2022-11-15T12:01:11.485Z,15.6
2022-11-15T12:11:00.031Z,15.3
2022-11-15T12:21:00.494Z,15.3
2022-11-15T12:31:00.948Z,15.3
2022-11-15T12:41:01.994Z,15.6
2022-11-15T12:51:02.205Z,15.7
2022-11-15T13:01:03.306Z,15
2022-11-15T13:11:10.722Z,14.8
2022-11-15T13:21:04.486Z,15.4
2022-11-15T13:31:05.143Z,15.3
2022-11-15T13:41:05.975Z,14.8
2022-11-15T13:41:11.146Z,14.8
2022-11-15T13:51:11.891Z,14.4
2022-11-15T14:01:12.782Z,14.1
2022-11-15T14:11:13.769Z,14.2
2022-11-15T14:41:15.968Z,13.9
2022-11-15T15:41:18.139Z,13.3
2022-11-15T15:51:26.178Z,13.3
2022-11-15T16:01:19.633Z,13.1
2022-11-15T16:11:19.934Z,13.2
2022-11-15T16:21:34.384Z,13.2
2022-11-15T16:31:27.490Z,13.1
2022-11-15T16:41:35.224Z,13.1
2022-11-15T16:51:22.211Z,13.1
2022-11-15T17:01:22.273Z,13
2022-11-15T17:11:22.341Z,12.9
2022-11-15T17:31:30.030Z,12.9
2022-11-15T17:41:23.732Z,12.9
2022-11-15T17:51:23.880Z,12.9
2022-11-15T18:11:32.603Z,12.8
2022-11-15T18:21:25.733Z,12.8
2022-11-15T18:41:34.197Z,13.2
2022-11-15T19:01:27.857Z,13.5
2022-11-15T19:11:28.116Z,13.6
2022-11-15T19:21:35.374Z,13.6
2022-11-15T19:31:28.516Z,13.6
2022-11-15T19:41:36.243Z,13.4
2022-11-15T19:51:29.882Z,13.3
2022-11-15T20:01:37.384Z,13.3
2022-11-15T20:21:31.405Z,13.3
2022-11-15T20:31:31.895Z,13.3
2022-11-15T20:41:39.757Z,13.4
2022-11-15T20:51:39.756Z,13.5
2022-11-15T21:01:39.950Z,13.4
2022-11-15T21:21:33.519Z,13.1
2022-11-15T21:31:40.510Z,13
2022-11-15T21:41:34.346Z,13.1
2022-11-15T22:41:43.838Z,12.1
2022-11-15T22:51:44.031Z,12.1
2022-11-15T23:01:37.381Z,12.1
2022-11-15T23:21:45.527Z,11.9
2022-11-15T23:41:53.183Z,12.1
